createdAt,value
2022-10-13T00:00:53.114Z,34.83
2022-10-13T00:03:21.187Z,33.90
2022-10-13T00:05:50.573Z,35.35
2022-10-13T00:08:20.615Z,36.17
2022-10-13T00:10:50.277Z,32.20
2022-10-13T00:13:19.050Z,33.50
2022-10-13T00:15:49.194Z,24.42
2022-10-13T00:18:17.777Z,34.10
2022-10-13T00:20:47.585Z,34.03
2022-10-13T00:23:16.151Z,29.77
2022-10-13T00:25:45.021Z,23.67
2022-10-13T00:28:13.498Z,29.17
2022-10-13T00:30:42.046Z,21.83
2022-10-13T00:33:13.420Z,24.23
2022-10-13T00:35:43.250Z,22.67
2022-10-13T00:38:11.504Z,24.88
2022-10-13T00:40:46.950Z,25.83
2022-10-13T00:43:18.686Z,28.63
2022-10-13T00:45:50.100Z,27.30
2022-10-13T00:48:22.359Z,28.10
2022-10-13T00:50:51.003Z,29.17
2022-10-13T00:53:21.936Z,33.72
2022-10-13T00:55:52.321Z,30.42
2022-10-13T00:58:23.560Z,29.83
2022-10-13T01:00:53.519Z,29.38
2022-10-13T01:03:23.420Z,36.40
2022-10-13T01:05:53.925Z,29.98
2022-10-13T01:08:23.150Z,28.98
2022-10-13T01:11:04.666Z,29.67
2022-10-13T01:13:38.761Z,23.08
2022-10-13T01:16:13.987Z,28.05
2022-10-13T01:18:51.949Z,31.35
2022-10-13T01:21:30.976Z,29.58
2022-10-13T01:24:39.036Z,30.98
2022-10-13T01:27:19.231Z,25.02
2022-10-13T01:30:08.724Z,39.63
2022-10-13T01:32:47.557Z,42.20
2022-10-13T01:35:20.088Z,31.85
2022-10-13T01:37:56.271Z,32.10
2022-10-13T01:40:28.345Z,32.20
2022-10-13T01:43:00.161Z,32.80
2022-10-13T01:45:35.270Z,28.70
2022-10-13T01:48:05.063Z,29.60
2022-10-13T01:50:34.824Z,20.92
2022-10-13T01:53:05.060Z,35.83
2022-10-13T01:55:33.098Z,28.23
2022-10-13T01:58:01.083Z,26.92
2022-10-13T02:00:37.422Z,29.33
2022-10-13T02:03:15.826Z,26.85
2022-10-13T02:05:49.553Z,28.73
2022-10-13T02:08:26.137Z,30.55
2022-10-13T02:11:01.230Z,32.08
2022-10-13T02:13:30.615Z,39.55
2022-10-13T02:16:02.666Z,37.08
2022-10-13T02:18:34.299Z,39.67
2022-10-13T02:21:03.930Z,41.67
2022-10-13T02:23:32.728Z,37.13
2022-10-13T02:26:01.505Z,32.00
2022-10-13T02:28:30.334Z,27.55
2022-10-13T02:30:59.918Z,34.22
2022-10-13T02:33:27.972Z,28.40
2022-10-13T02:35:55.944Z,25.38
2022-10-13T02:38:24.036Z,24.33
2022-10-13T02:40:52.037Z,26.80
2022-10-13T02:43:20.068Z,23.33
2022-10-13T02:45:48.022Z,27.05
2022-10-13T02:48:17.392Z,29.30
2022-10-13T02:50:45.360Z,29.00
2022-10-13T02:53:13.317Z,20.98
2022-10-13T02:55:41.310Z,27.75
2022-10-13T02:58:09.296Z,29.73
2022-10-13T03:00:39.646Z,24.55
2022-10-13T03:03:08.315Z,22.73
2022-10-13T03:05:37.674Z,30.98
2022-10-13T03:08:05.860Z,26.52
2022-10-13T03:10:33.869Z,24.38
2022-10-13T03:13:01.883Z,21.08
2022-10-13T03:15:29.887Z,25.40
2022-10-13T03:17:57.872Z,24.83
2022-10-13T03:20:25.894Z,22.42
2022-10-13T03:22:55.515Z,26.67
2022-10-13T03:25:23.519Z,28.05
2022-10-13T03:27:51.502Z,29.65
2022-10-13T03:30:19.534Z,29.33
2022-10-13T03:32:47.693Z,24.60
2022-10-13T03:35:15.749Z,27.67
2022-10-13T03:37:43.858Z,25.75
2022-10-13T03:40:13.895Z,31.98
2022-10-13T03:42:41.889Z,28.30
2022-10-13T03:45:10.860Z,26.88
2022-10-13T03:47:38.847Z,25.23
2022-10-13T03:50:07.896Z,25.35
2022-10-13T03:52:35.849Z,26.55
2022-10-13T03:55:04.232Z,31.58
2022-10-13T03:57:33.605Z,32.67
2022-10-13T04:00:01.825Z,36.65
2022-10-13T04:02:30.022Z,34.80
2022-10-13T04:04:58.076Z,35.28
2022-10-13T04:07:26.025Z,29.15
2022-10-13T04:09:54.180Z,32.42
2022-10-13T04:12:22.488Z,31.48
2022-10-13T04:14:52.017Z,32.15
2022-10-13T04:17:20.246Z,28.92
2022-10-13T04:19:48.466Z,33.45
2022-10-13T04:22:16.525Z,23.90
2022-10-13T04:24:44.545Z,23.75
2022-10-13T04:27:12.530Z,22.85
2022-10-13T04:29:40.528Z,30.05
2022-10-13T04:32:09.916Z,36.90
2022-10-13T04:34:38.053Z,34.08
2022-10-13T04:37:06.017Z,36.35
2022-10-13T04:39:34.215Z,26.23
2022-10-13T04:42:02.194Z,31.02
2022-10-13T04:44:31.171Z,39.08
2022-10-13T04:47:00.889Z,33.40
2022-10-13T04:49:30.238Z,42.10
2022-10-13T04:51:58.302Z,25.95
2022-10-13T04:54:26.331Z,24.90
2022-10-13T04:56:54.561Z,23.92
2022-10-13T04:59:25.459Z,22.63
2022-10-13T05:01:56.482Z,25.55
2022-10-13T05:04:26.881Z,24.67
2022-10-13T05:07:16.998Z,24.20
2022-10-13T05:09:44.358Z,21.23
2022-10-13T05:12:12.322Z,33.63
2022-10-13T05:14:40.378Z,26.30
2022-10-13T05:17:08.371Z,28.98
2022-10-13T05:19:39.054Z,32.95
2022-10-13T05:22:08.470Z,28.75
2022-10-13T05:24:37.618Z,24.80
2022-10-13T05:27:07.581Z,31.45
2022-10-13T05:29:35.555Z,32.63
2022-10-13T05:32:03.673Z,26.80
2022-10-13T05:34:32.775Z,30.88
2022-10-13T05:37:01.163Z,35.35
2022-10-13T05:39:30.554Z,38.97
2022-10-13T05:41:58.567Z,38.67
2022-10-13T05:44:27.546Z,38.08
2022-10-13T05:46:55.572Z,37.03
2022-10-13T05:49:23.610Z,38.67
2022-10-13T05:51:56.690Z,32.70
2022-10-13T05:54:30.234Z,31.73
2022-10-13T05:57:03.988Z,38.05
2022-10-13T05:59:36.542Z,28.73
2022-10-13T06:02:07.593Z,30.73
2022-10-13T06:04:39.607Z,34.35
2022-10-13T06:07:07.862Z,32.13
2022-10-13T06:09:38.183Z,28.42
2022-10-13T06:12:08.881Z,27.83
2022-10-13T06:14:36.872Z,26.13
2022-10-13T06:17:05.341Z,31.23
2022-10-13T06:19:33.339Z,27.02
2022-10-13T06:22:03.531Z,27.90
2022-10-13T06:24:31.967Z,26.42
2022-10-13T06:26:59.997Z,27.35
2022-10-13T06:29:29.366Z,27.52
2022-10-13T06:31:57.324Z,26.77
2022-10-13T06:34:25.410Z,26.50
2022-10-13T06:36:53.430Z,29.08
2022-10-13T06:39:21.389Z,29.30
2022-10-13T06:41:49.764Z,24.35
2022-10-13T06:44:17.785Z,28.35
2022-10-13T06:46:47.164Z,33.10
2022-10-13T06:49:15.168Z,26.83
2022-10-13T06:51:43.173Z,34.65
2022-10-13T06:54:11.232Z,39.70
2022-10-13T06:56:39.231Z,36.92
2022-10-13T06:59:07.251Z,30.38
2022-10-13T07:01:40.568Z,34.20
2022-10-13T07:04:10.856Z,30.77
2022-10-13T07:06:39.020Z,34.70
2022-10-13T07:09:07.935Z,30.48
2022-10-13T07:11:36.689Z,39.22
2022-10-13T07:14:04.677Z,31.02
2022-10-13T07:16:32.714Z,30.02
2022-10-13T07:19:00.726Z,26.40
2022-10-13T07:21:30.143Z,27.05
2022-10-13T07:23:58.237Z,33.17
2022-10-13T07:26:26.273Z,23.98
2022-10-13T07:28:54.385Z,22.48
2022-10-13T07:31:22.813Z,14.18
2022-10-13T07:33:51.817Z,15.05
2022-10-13T07:36:20.736Z,20.52
2022-10-13T07:38:56.091Z,15.73
2022-10-13T07:41:26.590Z,21.63
2022-10-13T07:43:56.322Z,16.00
2022-10-13T07:46:24.696Z,18.60
2022-10-13T07:48:53.674Z,16.88
2022-10-13T07:51:22.627Z,16.42
2022-10-13T07:53:52.403Z,15.98
2022-10-13T07:56:20.374Z,18.33
2022-10-13T07:58:48.917Z,15.80
2022-10-13T08:01:18.029Z,23.23
2022-10-13T08:03:50.152Z,20.15
2022-10-13T08:06:19.040Z,21.10
2022-10-13T08:08:47.111Z,24.20
2022-10-13T08:11:17.632Z,20.38
2022-10-13T08:13:48.919Z,22.08
2022-10-13T08:16:16.969Z,16.15
2022-10-13T08:18:44.949Z,20.65
2022-10-13T08:24:06.073Z,20.75
2022-10-13T08:26:35.472Z,22.00
2022-10-13T08:29:20.635Z,20.20
2022-10-13T08:34:23.634Z,22.00
2022-10-13T08:36:53.641Z,21.98
2022-10-13T08:39:22.674Z,18.88
2022-10-13T08:41:52.493Z,19.73
2022-10-13T08:45:06.248Z,22.70
2022-10-13T08:47:25.649Z,21.08
2022-10-13T08:49:59.143Z,20.45
2022-10-13T08:52:44.085Z,23.73
2022-10-13T08:55:21.542Z,21.77
2022-10-13T08:57:50.916Z,25.88
2022-10-13T09:00:19.380Z,24.00
2022-10-13T09:02:48.058Z,17.75
2022-10-13T09:05:23.424Z,16.10
2022-10-13T09:07:54.951Z,19.73
2022-10-13T09:10:22.916Z,24.02
2022-10-13T09:12:52.582Z,19.27
2022-10-13T09:15:20.819Z,24.05
2022-10-13T09:18:10.099Z,17.23
2022-10-13T09:20:38.098Z,17.48
2022-10-13T09:23:08.287Z,22.00
2022-10-13T09:25:42.569Z,19.80
2022-10-13T09:28:17.628Z,21.00
2022-10-13T09:30:48.188Z,18.30
2022-10-13T09:33:22.706Z,28.42
2022-10-13T09:36:11.368Z,19.33
2022-10-13T09:38:41.253Z,16.98
2022-10-13T09:41:17.075Z,20.65
2022-10-13T09:44:05.929Z,15.25
2022-10-13T09:46:37.567Z,15.77
2022-10-13T09:49:09.527Z,16.00
2022-10-13T09:51:41.099Z,21.33
2022-10-13T09:54:27.852Z,19.35
2022-10-13T09:57:01.023Z,14.93
2022-10-13T09:59:34.746Z,14.63
2022-10-13T10:02:05.468Z,21.05
2022-10-13T10:04:37.908Z,17.92
2022-10-13T10:07:13.115Z,16.92
2022-10-13T10:09:46.070Z,13.25
2022-10-13T10:12:20.274Z,15.20
2022-10-13T10:14:51.406Z,20.85
2022-10-13T10:17:26.251Z,16.63
2022-10-13T10:20:03.838Z,20.27
2022-10-13T10:22:38.903Z,19.20
2022-10-13T10:25:30.656Z,18.58
2022-10-13T10:28:18.215Z,18.73
2022-10-13T10:30:53.115Z,19.33
2022-10-13T10:33:26.443Z,19.35
2022-10-13T10:36:03.891Z,14.80
2022-10-13T10:38:41.244Z,20.60
2022-10-13T10:41:18.014Z,22.45
2022-10-13T10:43:54.333Z,17.45
2022-10-13T10:46:25.533Z,21.13
2022-10-13T10:48:56.569Z,20.60
2022-10-13T10:51:28.371Z,22.33
2022-10-13T10:54:07.462Z,26.40
2022-10-13T10:56:38.713Z,20.10
2022-10-13T10:59:18.151Z,19.63
2022-10-13T11:01:58.351Z,18.70
2022-10-13T11:04:42.583Z,21.70
2022-10-13T11:07:35.776Z,18.52
2022-10-13T11:10:17.928Z,22.23
2022-10-13T11:13:16.693Z,18.30
2022-10-13T11:15:46.031Z,14.40
2022-10-13T11:18:51.014Z,18.90
2022-10-13T11:21:20.396Z,18.02
2022-10-13T11:23:50.491Z,20.25
2022-10-13T11:26:33.508Z,19.27
2022-10-13T11:29:01.526Z,16.05
2022-10-13T11:31:35.960Z,19.23
2022-10-13T11:34:04.971Z,17.35
2022-10-13T11:36:45.942Z,17.67
2022-10-13T11:39:46.499Z,33.13
2022-10-13T11:42:55.551Z,21.73
2022-10-13T11:45:42.156Z,23.33
2022-10-13T11:48:47.790Z,17.52
2022-10-13T11:51:30.301Z,26.25
2022-10-13T11:54:11.177Z,16.08
2022-10-13T11:56:48.717Z,14.85
2022-10-13T11:59:25.672Z,15.90
2022-10-13T12:01:59.185Z,14.93
2022-10-13T12:04:29.467Z,20.20
2022-10-13T12:07:02.140Z,14.93
2022-10-13T12:09:33.651Z,14.85
2022-10-13T12:12:07.588Z,16.48
2022-10-13T12:14:40.354Z,15.82
2022-10-13T12:17:23.772Z,15.35
2022-10-13T12:19:52.652Z,13.60
2022-10-13T12:22:20.755Z,17.92
2022-10-13T12:25:00.639Z,17.85
2022-10-13T12:27:32.610Z,19.00
2022-10-13T12:30:00.813Z,16.58
2022-10-13T12:32:31.522Z,18.48
2022-10-13T12:35:12.187Z,16.25
2022-10-13T12:37:41.006Z,11.77
2022-10-13T12:40:15.555Z,16.30
2022-10-13T12:42:44.990Z,13.68
2022-10-13T12:45:17.420Z,15.15
2022-10-13T12:50:33.985Z,13.65
2022-10-13T12:53:17.027Z,21.20
2022-10-13T12:55:58.683Z,16.75
2022-10-13T12:58:30.660Z,12.93
2022-10-13T13:01:06.944Z,13.95
2022-10-13T13:03:36.351Z,14.57
2022-10-13T13:06:38.186Z,17.80
2022-10-13T13:09:30.756Z,14.15
2022-10-13T13:12:19.792Z,17.13
2022-10-13T13:14:49.659Z,13.60
2022-10-13T13:17:45.760Z,16.33
2022-10-13T13:20:22.674Z,15.15
2022-10-13T13:22:51.966Z,15.20
2022-10-13T13:25:20.331Z,15.13
2022-10-13T13:27:49.933Z,12.63
2022-10-13T13:30:19.718Z,13.40
2022-10-13T13:32:47.939Z,15.93
2022-10-13T13:35:16.034Z,11.02
2022-10-13T13:37:48.015Z,21.20
2022-10-13T13:40:19.107Z,17.33
2022-10-13T13:42:47.152Z,15.88
2022-10-13T13:45:18.273Z,17.38
2022-10-13T13:47:46.618Z,14.80
2022-10-13T13:50:18.575Z,12.13
2022-10-13T13:52:46.597Z,19.08
2022-10-13T13:55:14.691Z,13.57
2022-10-13T13:57:43.538Z,14.52
2022-10-13T14:00:12.974Z,14.68
2022-10-13T14:02:42.992Z,18.35
2022-10-13T14:05:12.500Z,15.65
2022-10-13T14:07:40.890Z,14.82
2022-10-13T14:10:10.863Z,13.13
2022-10-13T14:12:39.440Z,18.48
2022-10-13T14:15:08.520Z,13.32
2022-10-13T14:17:36.510Z,14.52
2022-10-13T14:20:07.010Z,15.98
2022-10-13T14:22:35.211Z,13.25
2022-10-13T14:25:03.198Z,13.80
2022-10-13T14:27:31.278Z,13.38
2022-10-13T14:29:59.253Z,14.68
2022-10-13T14:32:27.325Z,16.15
2022-10-13T14:34:55.379Z,15.50
2022-10-13T14:37:28.980Z,20.08
2022-10-13T14:39:59.952Z,21.05
2022-10-13T14:42:27.942Z,16.02
2022-10-13T14:44:55.946Z,19.95
2022-10-13T14:47:24.113Z,23.25
2022-10-13T14:49:52.157Z,17.95
2022-10-13T14:52:20.239Z,21.65
2022-10-13T14:54:49.618Z,22.60
2022-10-13T14:57:17.856Z,22.35
2022-10-13T14:59:47.830Z,13.70
2022-10-13T15:02:15.949Z,14.23
2022-10-13T15:04:43.937Z,11.05
2022-10-13T15:07:12.014Z,14.40
2022-10-13T15:09:53.290Z,12.70
2022-10-13T15:12:29.383Z,11.73
2022-10-13T15:14:57.379Z,15.38
2022-10-13T15:17:25.453Z,20.58
2022-10-13T15:19:53.427Z,17.55
2022-10-13T15:22:21.732Z,15.05
2022-10-13T15:24:50.010Z,17.00
2022-10-13T15:27:18.028Z,14.07
2022-10-13T15:29:47.409Z,13.15
2022-10-13T15:32:18.490Z,14.95
2022-10-13T15:34:47.066Z,12.18
2022-10-13T15:37:15.371Z,12.60
2022-10-13T15:39:43.340Z,23.08
2022-10-13T15:42:12.665Z,21.00
2022-10-13T15:45:08.215Z,18.40
2022-10-13T15:47:30.019Z,17.50
2022-10-13T15:49:58.160Z,15.15
2022-10-13T15:52:28.628Z,20.65
2022-10-13T15:55:00.309Z,19.63
2022-10-13T15:57:28.340Z,27.77
2022-10-13T15:59:56.470Z,22.40
2022-10-13T16:02:24.510Z,18.75
2022-10-13T16:04:53.915Z,20.27
2022-10-13T16:07:21.880Z,25.50
2022-10-13T16:09:49.856Z,27.10
2022-10-13T16:12:18.245Z,31.15
2022-10-13T16:14:46.810Z,26.63
2022-10-13T16:17:14.785Z,24.08
2022-10-13T16:19:42.907Z,20.52
2022-10-13T16:22:12.295Z,28.13
2022-10-13T16:24:40.335Z,31.08
2022-10-13T16:27:08.565Z,22.05
2022-10-13T16:29:36.883Z,23.30
2022-10-13T16:32:05.013Z,18.50
2022-10-13T16:34:33.183Z,32.35
2022-10-13T16:37:01.211Z,26.92
2022-10-13T16:39:30.685Z,23.55
2022-10-13T16:41:58.808Z,21.58
2022-10-13T16:44:26.818Z,31.90
2022-10-13T16:46:56.947Z,24.08
2022-10-13T16:49:25.289Z,32.95
2022-10-13T16:51:53.395Z,26.20
2022-10-13T16:54:21.420Z,26.50
2022-10-13T16:56:51.582Z,30.33
2022-10-13T16:59:19.665Z,25.63
2022-10-13T17:01:48.619Z,30.50
2022-10-13T17:04:21.879Z,28.45
2022-10-13T17:06:50.207Z,25.23
2022-10-13T17:09:18.275Z,23.65
2022-10-13T17:11:47.040Z,28.27
2022-10-13T17:14:16.401Z,28.02
2022-10-13T17:16:45.251Z,24.17
2022-10-13T17:19:13.613Z,28.25
2022-10-13T17:21:41.790Z,30.52
2022-10-13T17:24:09.958Z,29.35
2022-10-13T17:26:38.362Z,30.13
2022-10-13T17:29:07.177Z,30.10
2022-10-13T17:31:36.960Z,29.10
2022-10-13T17:34:06.384Z,23.45
2022-10-13T17:36:34.632Z,27.98
2022-10-13T17:39:05.743Z,33.70
2022-10-13T17:41:34.215Z,28.50
2022-10-13T17:44:02.688Z,26.48
2022-10-13T17:46:37.960Z,28.52
2022-10-13T17:49:11.082Z,26.83
2022-10-13T17:51:39.725Z,29.55
2022-10-13T17:54:14.433Z,28.05
2022-10-13T17:56:47.937Z,26.23
2022-10-13T17:59:17.800Z,26.50
2022-10-13T18:01:46.842Z,37.20
2022-10-13T18:04:18.833Z,28.80
2022-10-13T18:06:47.326Z,25.77
2022-10-13T18:09:17.828Z,28.45
2022-10-13T18:11:50.706Z,27.65
2022-10-13T18:14:20.266Z,31.98
2022-10-13T18:16:49.353Z,29.55
2022-10-13T18:19:19.493Z,29.35
2022-10-13T18:21:47.961Z,27.77
2022-10-13T18:24:19.454Z,24.63
2022-10-13T18:26:48.353Z,28.92
2022-10-13T18:29:16.942Z,25.00
2022-10-13T18:31:45.524Z,40.97
2022-10-13T18:34:15.816Z,26.40
2022-10-13T18:36:47.701Z,26.60
2022-10-13T18:39:18.174Z,27.57
2022-10-13T18:41:47.061Z,26.83
2022-10-13T18:44:16.026Z,28.27
2022-10-13T18:46:44.481Z,36.13
2022-10-13T18:49:15.350Z,25.38
2022-10-13T18:51:43.768Z,30.05
2022-10-13T18:54:14.396Z,31.60
2022-10-13T18:56:45.188Z,28.45
2022-10-13T18:59:13.801Z,33.42
2022-10-13T19:01:43.484Z,28.05
2022-10-13T19:04:13.498Z,30.80
2022-10-13T19:06:45.266Z,34.25
2022-10-13T19:09:17.696Z,36.20
2022-10-13T19:11:46.241Z,30.88
2022-10-13T19:14:15.385Z,31.35
2022-10-13T19:16:44.977Z,38.38
2022-10-13T19:19:13.654Z,31.98
2022-10-13T19:21:42.679Z,35.85
2022-10-13T19:24:14.128Z,31.73
2022-10-13T19:26:43.963Z,33.45
2022-10-13T19:29:16.195Z,38.70
2022-10-13T19:31:45.229Z,36.95
2022-10-13T19:34:15.087Z,33.90
2022-10-13T19:36:45.682Z,33.88
2022-10-13T19:39:18.628Z,36.58
2022-10-13T19:41:49.835Z,34.58
2022-10-13T19:44:20.102Z,31.58
2022-10-13T19:46:52.067Z,34.17
2022-10-13T19:49:23.407Z,31.23
2022-10-13T19:51:54.987Z,33.20
2022-10-13T19:54:30.142Z,30.70
2022-10-13T19:57:09.826Z,28.85
2022-10-13T19:59:44.061Z,40.50
2022-10-13T20:02:17.605Z,41.67
2022-10-13T20:04:46.279Z,30.90
2022-10-13T20:07:14.440Z,35.35
2022-10-13T20:09:42.525Z,37.88
2022-10-13T20:12:12.039Z,33.15
2022-10-13T20:14:40.388Z,41.13
2022-10-13T20:17:08.495Z,38.80
2022-10-13T20:19:36.637Z,40.67
2022-10-13T20:22:04.939Z,40.20
2022-10-13T20:24:33.198Z,40.35
2022-10-13T20:27:01.202Z,34.55
2022-10-13T20:29:32.858Z,28.90
2022-10-13T20:32:01.164Z,31.63
2022-10-13T20:34:29.737Z,26.95
2022-10-13T20:36:58.287Z,33.88
2022-10-13T20:39:26.357Z,36.40
2022-10-13T20:41:54.696Z,41.65
2022-10-13T20:44:22.672Z,34.05
2022-10-13T20:46:52.221Z,30.00
2022-10-13T20:49:20.332Z,35.78
2022-10-13T20:51:48.961Z,37.20
2022-10-13T20:54:18.123Z,34.90
2022-10-13T20:56:47.351Z,27.58
2022-10-13T20:59:15.931Z,42.33
2022-10-13T21:01:44.185Z,36.80
2022-10-13T21:04:13.969Z,36.20
2022-10-13T21:06:42.157Z,32.10
2022-10-13T21:09:11.396Z,29.23
2022-10-13T21:11:39.832Z,32.13
2022-10-13T21:14:09.779Z,32.97
2022-10-13T21:16:38.910Z,36.08
2022-10-13T21:19:07.853Z,35.20
2022-10-13T21:21:37.999Z,33.35
2022-10-13T21:24:08.577Z,38.75
2022-10-13T21:26:36.979Z,32.92
2022-10-13T21:29:05.533Z,33.03
2022-10-13T21:31:33.485Z,30.48
2022-10-13T21:34:01.453Z,29.23
2022-10-13T21:36:31.219Z,30.38
2022-10-13T21:39:02.458Z,33.95
2022-10-13T21:41:30.738Z,32.15
2022-10-13T21:44:00.278Z,36.22
2022-10-13T21:46:30.077Z,35.33
2022-10-13T21:48:59.676Z,36.85
2022-10-13T21:51:29.780Z,36.65
2022-10-13T21:54:01.514Z,41.35
2022-10-13T21:56:29.813Z,38.60
2022-10-13T21:58:57.863Z,34.08
2022-10-13T22:01:25.965Z,29.25
2022-10-13T22:03:56.389Z,29.33
2022-10-13T22:06:24.373Z,27.38
2022-10-13T22:08:54.025Z,32.90
2022-10-13T22:11:25.589Z,44.95
2022-10-13T22:13:53.919Z,34.13
2022-10-13T22:16:23.829Z,38.47
2022-10-13T22:18:53.004Z,41.08
2022-10-13T22:21:23.811Z,41.67
2022-10-13T22:23:51.869Z,30.33
2022-10-13T22:26:20.777Z,37.60
2022-10-13T22:28:52.031Z,32.92
2022-10-13T22:31:22.817Z,34.97
2022-10-13T22:33:53.698Z,36.35
2022-10-13T22:36:23.804Z,38.42
2022-10-13T22:38:53.657Z,29.77
2022-10-13T22:41:22.483Z,45.60
2022-10-13T22:43:53.057Z,31.20
2022-10-13T22:46:22.304Z,30.85
2022-10-13T22:48:50.915Z,37.25
2022-10-13T22:51:20.794Z,34.50
2022-10-13T22:53:50.211Z,37.38
2022-10-13T22:56:20.076Z,37.70
2022-10-13T22:58:52.073Z,39.67
2022-10-13T23:01:21.157Z,39.83
2022-10-13T23:03:49.969Z,34.70
2022-10-13T23:06:20.527Z,42.85
2022-10-13T23:08:48.713Z,29.70
2022-10-13T23:11:17.384Z,30.85
2022-10-13T23:13:45.438Z,32.40
2022-10-13T23:16:16.605Z,27.60
2022-10-13T23:18:44.933Z,26.35
2022-10-13T23:21:15.661Z,40.28
2022-10-13T23:23:44.083Z,33.83
2022-10-13T23:26:13.854Z,36.50
2022-10-13T23:28:42.429Z,30.38
2022-10-13T23:31:14.336Z,34.65
2022-10-13T23:33:44.387Z,34.03
2022-10-13T23:36:16.230Z,32.38
2022-10-13T23:38:44.735Z,31.00
2022-10-13T23:41:15.310Z,35.22
2022-10-13T23:43:44.082Z,28.23
2022-10-13T23:46:12.867Z,40.38
2022-10-13T23:48:41.899Z,36.85
2022-10-13T23:51:13.530Z,36.30
2022-10-13T23:53:42.321Z,37.25
2022-10-13T23:56:11.519Z,34.25
2022-10-13T23:58:40.609Z,28.42
